createdAt,value
2019-03-09T00:00:41.145Z,99099.06
2019-03-09T00:05:59.677Z,99090.54
2019-03-09T00:11:18.277Z,99076.80
2019-03-09T00:16:37.181Z,99062.27
2019-03-09T00:21:55.784Z,99067.06
2019-03-09T00:27:15.887Z,99053.91
2019-03-09T00:32:34.536Z,99045.64
2019-03-09T00:37:52.998Z,99035.50
2019-03-09T00:43:11.615Z,99036.51
2019-03-09T00:48:30.148Z,99033.14
2019-03-09T00:53:48.696Z,99040.72
2019-03-09T00:59:07.226Z,99040.69
2019-03-09T01:04:25.885Z,99027.66
2019-03-09T01:09:44.512Z,99021.23
2019-03-09T01:15:03.228Z,99007.38
2019-03-09T01:20:21.832Z,98989.01
2019-03-09T01:25:40.393Z,98973.09
2019-03-09T01:30:59.015Z,98968.31
2019-03-09T01:36:17.473Z,98960.50
2019-03-09T01:41:36.101Z,98954.52
2019-03-09T01:46:54.713Z,98943.05
2019-03-09T01:52:13.274Z,98930.29
2019-03-09T01:57:31.898Z,98907.88
2019-03-09T02:02:50.510Z,98906.47
2019-03-09T02:08:09.352Z,98903.11
2019-03-09T02:13:29.416Z,98891.25
2019-03-09T02:18:48.054Z,98909.91
2019-03-09T02:24:06.588Z,98878.30
2019-03-09T02:29:25.141Z,98869.98
2019-03-09T02:34:43.768Z,98871.08
2019-03-09T02:40:03.956Z,98864.72
2019-03-09T02:45:25.037Z,98864.13
2019-03-09T02:50:51.333Z,98857.13
2019-03-09T02:56:11.768Z,98862.58
2019-03-09T03:01:32.036Z,98856.63
2019-03-09T03:06:51.116Z,98863.63
2019-03-09T03:12:15.137Z,98881.03
2019-03-09T03:17:33.787Z,98880.63
2019-03-09T03:22:52.378Z,98869.48
2019-03-09T03:28:11.311Z,98872.75
2019-03-09T03:33:30.010Z,98867.67
2019-03-09T03:38:48.573Z,98872.44
2019-03-09T03:44:07.436Z,98872.12
2019-03-09T03:49:26.423Z,98866.24
2019-03-09T03:54:44.976Z,98863.81
2019-03-09T04:00:05.513Z,98866.05
2019-03-09T04:05:25.594Z,98867.27
2019-03-09T04:10:44.344Z,98872.94
2019-03-09T04:16:02.963Z,98875.17
2019-03-09T04:21:21.465Z,98876.98
2019-03-09T04:26:40.361Z,98897.17
2019-03-09T04:31:59.013Z,98910.03
2019-03-09T04:37:17.637Z,98913.70
2019-03-09T04:42:36.200Z,98924.34
2019-03-09T04:47:55.033Z,98938.45
2019-03-09T04:53:13.939Z,98952.17
2019-03-09T04:58:32.511Z,98956.81
2019-03-09T05:04:19.962Z,98943.20
2019-03-09T05:09:59.723Z,98956.61
2019-03-09T05:15:18.391Z,98988.19
2019-03-09T05:20:36.960Z,98999.34
2019-03-09T05:25:55.523Z,98988.68
2019-03-09T05:31:14.140Z,98991.13
2019-03-09T05:36:32.705Z,99001.29
2019-03-09T05:41:51.317Z,99021.69
2019-03-09T05:47:09.961Z,99042.81
2019-03-09T05:52:31.620Z,99047.09
2019-03-09T05:57:50.263Z,99037.22
2019-03-09T06:03:08.817Z,99044.64
2019-03-09T06:08:28.273Z,99036.32
2019-03-09T06:13:47.165Z,99028.91
2019-03-09T06:19:05.824Z,99029.91
2019-03-09T06:24:24.288Z,99018.66
2019-03-09T06:29:42.900Z,99033.26
2019-03-09T06:35:01.837Z,99048.80
2019-03-09T06:40:20.495Z,99070.84
2019-03-09T06:45:39.441Z,99107.63
2019-03-09T06:50:58.046Z,99108.73
2019-03-09T06:56:16.687Z,99121.72
2019-03-09T07:01:35.288Z,99123.66
2019-03-09T07:06:53.908Z,99133.19
2019-03-09T07:12:13.193Z,99144.78
2019-03-09T07:17:31.847Z,99136.85
2019-03-09T07:22:50.629Z,99156.85
2019-03-09T07:28:14.650Z,99146.92
2019-03-09T07:33:33.286Z,99148.24
2019-03-09T07:38:52.049Z,99143.13
2019-03-09T07:44:10.605Z,99139.78
2019-03-09T07:49:29.179Z,99166.53
2019-03-09T07:54:47.868Z,99153.80
2019-03-09T08:00:18.009Z,99187.03
2019-03-09T08:05:36.624Z,99187.27
2019-03-09T08:10:55.180Z,99196.72
2019-03-09T08:16:13.765Z,99192.33
2019-03-09T08:21:32.339Z,99186.11
2019-03-09T08:26:50.821Z,99196.70
2019-03-09T08:32:09.379Z,99189.46
2019-03-09T08:37:28.011Z,99181.31
2019-03-09T08:42:46.714Z,99185.87
2019-03-09T08:48:05.340Z,99173.27
2019-03-09T08:53:28.638Z,99159.58
2019-03-09T08:58:48.479Z,99164.66
2019-03-09T09:04:07.172Z,99180.81
2019-03-09T09:09:25.818Z,99199.09
2019-03-09T09:14:44.427Z,99213.81
2019-03-09T09:20:03.029Z,99217.63
2019-03-09T09:25:21.585Z,99228.42
2019-03-09T09:30:40.216Z,99220.95
2019-03-09T09:35:58.801Z,99213.55
2019-03-09T09:41:18.021Z,99190.77
2019-03-09T09:46:36.685Z,99190.91
2019-03-09T09:51:55.298Z,99208.20
2019-03-09T09:57:15.595Z,99198.51
2019-03-09T10:02:34.264Z,99220.09
2019-03-09T10:07:53.349Z,99228.66
2019-03-09T10:13:12.143Z,99212.16
2019-03-09T10:18:30.745Z,99178.46
2019-03-09T10:23:49.391Z,99174.62
2019-03-09T10:29:08.012Z,99218.42
2019-03-09T10:34:26.617Z,99194.91
2019-03-09T10:39:45.314Z,99206.64
2019-03-09T10:45:05.181Z,99196.47
2019-03-09T10:50:26.073Z,99185.32
2019-03-09T10:55:44.805Z,99177.06
2019-03-09T11:01:07.893Z,99166.92
2019-03-09T11:06:29.367Z,99142.38
2019-03-09T11:11:48.135Z,99142.17
2019-03-09T11:17:09.590Z,99139.45
2019-03-09T11:22:28.187Z,99133.11
2019-03-09T11:27:47.134Z,99112.33
2019-03-09T11:33:06.569Z,99118.05
2019-03-09T11:38:29.331Z,99114.00
2019-03-09T11:43:47.868Z,99124.84
2019-03-09T11:49:06.429Z,99093.00
2019-03-09T11:54:25.000Z,99091.30
2019-03-09T11:59:43.615Z,99071.98
2019-03-09T12:05:02.226Z,99082.57
2019-03-09T12:10:20.846Z,99036.81
2019-03-09T12:15:39.377Z,99009.92
2019-03-09T12:20:57.948Z,99006.07
2019-03-09T12:26:16.560Z,99005.46
2019-03-09T12:31:35.044Z,98989.30
2019-03-09T12:36:53.657Z,98976.65
2019-03-09T12:42:13.399Z,98977.82
2019-03-09T12:47:31.864Z,98968.78
2019-03-09T12:52:53.347Z,98953.66
2019-03-09T12:58:11.906Z,98942.56
2019-03-09T13:03:30.641Z,98938.00
2019-03-09T13:08:49.176Z,98934.84
2019-03-09T13:14:07.840Z,98931.09
2019-03-09T13:19:26.318Z,98904.78
2019-03-09T13:24:44.869Z,98872.11
2019-03-09T13:30:05.252Z,98895.27
2019-03-09T13:35:23.868Z,98869.34
2019-03-09T13:40:42.475Z,98853.66
2019-03-09T13:46:01.351Z,98847.98
2019-03-09T13:51:21.367Z,98819.94
2019-03-09T13:56:39.888Z,98820.48
2019-03-09T14:01:59.287Z,98827.20
2019-03-09T14:07:17.857Z,98836.67
2019-03-09T14:12:36.517Z,98828.98
2019-03-09T14:17:55.114Z,98809.88
2019-03-09T14:23:13.735Z,98809.36
2019-03-09T14:28:32.289Z,98796.16
2019-03-09T14:33:50.940Z,98793.87
2019-03-09T14:39:11.677Z,98789.75
2019-03-09T14:44:29.851Z,98782.70
2019-03-09T14:49:48.468Z,98791.14
2019-03-09T14:55:10.627Z,98784.39
2019-03-09T15:00:30.874Z,98773.64
2019-03-09T15:05:49.611Z,98750.11
2019-03-09T15:11:08.186Z,98790.99
2019-03-09T15:16:26.789Z,98819.16
2019-03-09T15:21:45.687Z,98789.43
2019-03-09T15:27:04.315Z,98789.59
2019-03-09T15:32:22.917Z,98790.54
2019-03-09T15:37:43.391Z,98801.41
2019-03-09T15:43:28.628Z,98801.41
2019-03-09T15:48:47.270Z,98808.91
2019-03-09T15:54:05.900Z,98830.59
2019-03-09T15:59:24.451Z,98869.09
2019-03-09T16:04:43.176Z,98916.75
2019-03-09T16:10:05.926Z,98896.99
2019-03-09T16:15:24.520Z,98926.72
2019-03-09T16:20:43.098Z,98947.17
2019-03-09T16:26:01.586Z,98962.07
2019-03-09T16:31:20.228Z,99012.84
2019-03-09T16:36:38.717Z,99128.90
2019-03-09T16:41:57.281Z,99123.51
2019-03-09T16:47:15.826Z,99111.92
2019-03-09T16:52:34.405Z,99107.15
2019-03-09T16:57:53.161Z,99106.78
2019-03-09T17:03:11.736Z,99133.23
2019-03-09T17:08:30.354Z,99150.92
2019-03-09T17:13:49.015Z,99166.48
2019-03-09T17:19:07.689Z,99211.75
2019-03-09T17:24:26.201Z,99222.78
2019-03-09T17:29:44.722Z,99245.92
2019-03-09T17:35:03.347Z,99245.92
2019-03-09T17:40:22.067Z,99263.53
2019-03-09T17:45:40.834Z,99290.76
2019-03-09T17:50:59.557Z,99296.33
2019-03-09T17:56:18.168Z,99310.83
2019-03-09T18:01:36.811Z,99324.91
2019-03-09T18:06:55.356Z,99334.37
2019-03-09T18:12:13.905Z,99338.97
2019-03-09T18:17:32.444Z,99361.11
2019-03-09T18:22:51.185Z,99375.66
2019-03-09T18:28:09.957Z,99376.92
2019-03-09T18:33:28.578Z,99404.17
2019-03-09T18:38:48.756Z,99416.70
2019-03-09T18:44:07.429Z,99422.25
2019-03-09T18:49:26.083Z,99430.54
2019-03-09T18:54:44.934Z,99439.70
2019-03-09T19:00:05.111Z,99443.66
2019-03-09T19:05:23.727Z,99446.92
2019-03-09T19:10:42.340Z,99458.23
2019-03-09T19:16:01.522Z,99468.57
2019-03-09T19:21:20.144Z,99473.29
2019-03-09T19:26:38.695Z,99478.33
2019-03-09T19:31:57.380Z,99476.30
2019-03-09T19:37:16.373Z,99479.14
2019-03-09T19:42:34.998Z,99476.63
2019-03-09T19:47:53.941Z,99485.97
2019-03-09T19:53:12.550Z,99495.97
2019-03-09T19:58:32.000Z,99500.03
2019-03-09T20:03:50.598Z,99497.16
2019-03-09T20:09:09.255Z,99498.22
2019-03-09T20:14:27.929Z,99493.95
2019-03-09T20:19:46.481Z,99500.05
2019-03-09T20:25:05.641Z,99496.85
2019-03-09T20:30:24.243Z,99494.27
2019-03-09T20:35:42.811Z,99498.61
2019-03-09T20:41:01.368Z,99508.90
2019-03-09T20:46:19.987Z,99504.27
2019-03-09T20:51:38.626Z,99519.65
2019-03-09T20:56:57.321Z,99522.02
2019-03-09T21:02:15.893Z,99520.38
2019-03-09T21:07:34.553Z,99525.98
2019-03-09T21:13:01.503Z,99518.06
2019-03-09T21:18:20.066Z,99525.64
2019-03-09T21:23:41.193Z,99524.31
2019-03-09T21:29:00.013Z,99517.72
2019-03-09T21:34:21.806Z,99527.82
2019-03-09T21:39:40.307Z,99517.22
2019-03-09T21:44:58.859Z,99520.20
2019-03-09T21:50:18.163Z,99522.52
2019-03-09T21:55:36.992Z,99526.48
2019-03-09T22:00:55.495Z,99521.33
2019-03-09T22:06:16.068Z,99529.25
2019-03-09T22:11:34.565Z,99533.47
2019-03-09T22:16:56.620Z,99532.27
2019-03-09T22:22:13.543Z,99526.93
2019-03-09T22:27:32.094Z,99534.23
2019-03-09T22:32:50.719Z,99536.11
2019-03-09T22:38:09.701Z,99534.84
2019-03-09T22:43:28.334Z,99524.94
2019-03-09T22:48:46.907Z,99530.95
2019-03-09T22:54:05.995Z,99529.13
2019-03-09T22:59:24.614Z,99524.79
2019-03-09T23:04:43.358Z,99522.70
2019-03-09T23:10:01.884Z,99528.18
2019-03-09T23:15:20.834Z,99522.45
2019-03-09T23:20:39.588Z,99512.07
2019-03-09T23:25:58.177Z,99522.90
2019-03-09T23:31:16.924Z,99512.44
2019-03-09T23:36:35.567Z,99497.73
2019-03-09T23:41:54.131Z,99504.73
2019-03-09T23:47:12.755Z,99492.41
2019-03-09T23:52:31.410Z,99492.41
2019-03-09T23:57:50.243Z,99489.84
